sensor_id;sensor_type;location;lat;lon;timestamp;P1;durP1;ratioP1;P2;durP2;ratioP2
29548;SDS011;16487;53.094;8.800;2023-11-21T00:01:05;14.80;;;5.47;;
29548;SDS011;16487;53.094;8.800;2023-11-21T00:03:33;8.67;;;6.60;;
29548;SDS011;16487;53.094;8.800;2023-11-21T00:06:06;12.40;;;5.30;;
29548;SDS011;16487;53.094;8.800;2023-11-21T00:08:35;7.73;;;5.70;;
29548;SDS011;16487;53.094;8.800;2023-11-21T00:11:03;12.17;;;6.80;;
29548;SDS011;16487;53.094;8.800;2023-11-21T00:13:31;12.90;;;6.10;;
29548;SDS011;16487;53.094;8.800;2023-11-21T00:16:00;21.57;;;5.67;;
29548;SDS011;16487;53.094;8.800;2023-11-21T00:18:28;11.70;;;5.80;;
29548;SDS011;16487;53.094;8.800;2023-11-21T00:20:55;11.80;;;6.10;;
29548;SDS011;16487;53.094;8.800;2023-11-21T00:23:25;9.87;;;5.37;;
29548;SDS011;16487;53.094;8.800;2023-11-21T00:25:53;10.47;;;5.07;;
29548;SDS011;16487;53.094;8.800;2023-11-21T00:28:20;9.30;;;3.73;;
29548;SDS011;16487;53.094;8.800;2023-11-21T00:30:53;11.90;;;5.53;;
29548;SDS011;16487;53.094;8.800;2023-11-21T00:33:26;13.57;;;6.30;;
29548;SDS011;16487;53.094;8.800;2023-11-21T00:35:58;10.70;;;5.90;;
29548;SDS011;16487;53.094;8.800;2023-11-21T00:38:25;10.30;;;6.03;;
29548;SDS011;16487;53.094;8.800;2023-11-21T00:40:53;9.67;;;5.93;;
29548;SDS011;16487;53.094;8.800;2023-11-21T00:43:23;13.03;;;5.13;;
29548;SDS011;16487;53.094;8.800;2023-11-21T00:45:50;7.77;;;4.13;;
29548;SDS011;16487;53.094;8.800;2023-11-21T00:48:18;10.17;;;5.27;;
29548;SDS011;16487;53.094;8.800;2023-11-21T00:50:50;6.23;;;3.77;;
29548;SDS011;16487;53.094;8.800;2023-11-21T00:53:25;7.73;;;5.10;;
29548;SDS011;16487;53.094;8.800;2023-11-21T00:55:52;8.53;;;3.90;;
29548;SDS011;16487;53.094;8.800;2023-11-21T00:58:23;10.40;;;6.13;;
29548;SDS011;16487;53.094;8.800;2023-11-21T01:00:50;12.13;;;6.33;;
29548;SDS011;16487;53.094;8.800;2023-11-21T01:03:18;11.20;;;5.77;;
29548;SDS011;16487;53.094;8.800;2023-11-21T01:05:46;14.30;;;7.43;;
29548;SDS011;16487;53.094;8.800;2023-11-21T01:08:17;8.50;;;6.13;;
29548;SDS011;16487;53.094;8.800;2023-11-21T01:10:47;17.63;;;7.13;;
29548;SDS011;16487;53.094;8.800;2023-11-21T01:13:17;8.50;;;4.93;;
29548;SDS011;16487;53.094;8.800;2023-11-21T01:15:46;11.53;;;6.70;;
29548;SDS011;16487;53.094;8.800;2023-11-21T01:18:14;20.97;;;7.17;;
29548;SDS011;16487;53.094;8.800;2023-11-21T01:20:42;13.70;;;8.40;;
29548;SDS011;16487;53.094;8.800;2023-11-21T01:23:10;13.17;;;6.80;;
29548;SDS011;16487;53.094;8.800;2023-11-21T01:25:47;12.90;;;7.33;;
29548;SDS011;16487;53.094;8.800;2023-11-21T01:28:19;12.57;;;6.87;;
29548;SDS011;16487;53.094;8.800;2023-11-21T01:30:47;9.53;;;5.43;;
29548;SDS011;16487;53.094;8.800;2023-11-21T01:33:15;15.10;;;8.63;;
29548;SDS011;16487;53.094;8.800;2023-11-21T01:35:45;12.90;;;5.83;;
29548;SDS011;16487;53.094;8.800;2023-11-21T01:38:14;14.10;;;7.20;;
29548;SDS011;16487;53.094;8.800;2023-11-21T01:40:41;8.00;;;5.80;;
29548;SDS011;16487;53.094;8.800;2023-11-21T01:43:11;12.47;;;7.13;;
29548;SDS011;16487;53.094;8.800;2023-11-21T01:45:40;11.60;;;6.40;;
29548;SDS011;16487;53.094;8.800;2023-11-21T01:48:07;13.07;;;5.37;;
29548;SDS011;16487;53.094;8.800;2023-11-21T01:50:36;11.47;;;5.00;;
29548;SDS011;16487;53.094;8.800;2023-11-21T01:53:03;15.30;;;6.50;;
29548;SDS011;16487;53.094;8.800;2023-11-21T01:55:37;9.03;;;6.47;;
29548;SDS011;16487;53.094;8.800;2023-11-21T01:58:07;11.93;;;4.90;;
29548;SDS011;16487;53.094;8.800;2023-11-21T02:00:36;8.57;;;5.17;;
29548;SDS011;16487;53.094;8.800;2023-11-21T02:03:04;9.60;;;6.53;;
29548;SDS011;16487;53.094;8.800;2023-11-21T02:05:32;10.07;;;5.17;;
29548;SDS011;16487;53.094;8.800;2023-11-21T02:07:59;6.93;;;5.07;;
29548;SDS011;16487;53.094;8.800;2023-11-21T02:10:26;11.17;;;6.40;;
29548;SDS011;16487;53.094;8.800;2023-11-21T02:12:56;13.53;;;4.73;;
29548;SDS011;16487;53.094;8.800;2023-11-21T02:15:25;7.67;;;4.70;;
29548;SDS011;16487;53.094;8.800;2023-11-21T02:17:54;7.80;;;3.80;;
29548;SDS011;16487;53.094;8.800;2023-11-21T02:20:25;7.50;;;6.17;;
29548;SDS011;16487;53.094;8.800;2023-11-21T02:22:54;8.20;;;5.57;;
29548;SDS011;16487;53.094;8.800;2023-11-21T02:25:31;6.80;;;5.37;;
29548;SDS011;16487;53.094;8.800;2023-11-21T02:28:05;10.03;;;5.67;;
29548;SDS011;16487;53.094;8.800;2023-11-21T02:30:35;11.17;;;4.93;;
29548;SDS011;16487;53.094;8.800;2023-11-21T02:33:06;5.07;;;4.17;;
29548;SDS011;16487;53.094;8.800;2023-11-21T02:35:37;9.83;;;4.47;;
29548;SDS011;16487;53.094;8.800;2023-11-21T02:38:05;10.03;;;4.73;;
29548;SDS011;16487;53.094;8.800;2023-11-21T02:40:38;7.10;;;4.07;;
29548;SDS011;16487;53.094;8.800;2023-11-21T02:43:06;7.33;;;3.83;;
29548;SDS011;16487;53.094;8.800;2023-11-21T02:45:36;7.03;;;3.63;;
29548;SDS011;16487;53.094;8.800;2023-11-21T02:48:08;10.10;;;4.53;;
29548;SDS011;16487;53.094;8.800;2023-11-21T02:50:39;11.20;;;6.10;;
29548;SDS011;16487;53.094;8.800;2023-11-21T02:53:11;10.20;;;5.13;;
29548;SDS011;16487;53.094;8.800;2023-11-21T02:55:47;10.00;;;5.67;;
29548;SDS011;16487;53.094;8.800;2023-11-21T02:58:18;12.37;;;5.27;;
29548;SDS011;16487;53.094;8.800;2023-11-21T03:00:48;5.80;;;3.10;;
29548;SDS011;16487;53.094;8.800;2023-11-21T03:03:21;12.23;;;5.67;;
29548;SDS011;16487;53.094;8.800;2023-11-21T03:06:12;11.03;;;5.43;;
29548;SDS011;16487;53.094;8.800;2023-11-21T03:08:44;9.00;;;4.97;;
29548;SDS011;16487;53.094;8.800;2023-11-21T03:11:12;11.70;;;5.60;;
29548;SDS011;16487;53.094;8.800;2023-11-21T03:13:40;12.83;;;5.90;;
29548;SDS011;16487;53.094;8.800;2023-11-21T03:16:08;18.03;;;6.00;;
29548;SDS011;16487;53.094;8.800;2023-11-21T03:18:40;10.77;;;6.17;;
29548;SDS011;16487;53.094;8.800;2023-11-21T03:21:07;13.17;;;6.53;;
29548;SDS011;16487;53.094;8.800;2023-11-21T03:23:35;17.57;;;6.47;;
29548;SDS011;16487;53.094;8.800;2023-11-21T03:26:06;20.80;;;7.60;;
29548;SDS011;16487;53.094;8.800;2023-11-21T03:28:38;11.23;;;6.77;;
29548;SDS011;16487;53.094;8.800;2023-11-21T03:31:09;13.63;;;4.60;;
29548;SDS011;16487;53.094;8.800;2023-11-21T03:33:36;10.40;;;5.23;;
29548;SDS011;16487;53.094;8.800;2023-11-21T03:36:04;12.83;;;5.30;;
29548;SDS011;16487;53.094;8.800;2023-11-21T03:38:34;13.30;;;4.60;;
29548;SDS011;16487;53.094;8.800;2023-11-21T03:41:07;15.67;;;5.73;;
29548;SDS011;16487;53.094;8.800;2023-11-21T03:43:46;17.27;;;7.30;;
29548;SDS011;16487;53.094;8.800;2023-11-21T03:46:18;13.40;;;8.20;;
29548;SDS011;16487;53.094;8.800;2023-11-21T03:48:47;13.10;;;6.10;;
29548;SDS011;16487;53.094;8.800;2023-11-21T03:51:19;14.30;;;6.03;;
29548;SDS011;16487;53.094;8.800;2023-11-21T03:53:49;13.13;;;7.30;;
29548;SDS011;16487;53.094;8.800;2023-11-21T03:56:20;15.03;;;6.40;;
29548;SDS011;16487;53.094;8.800;2023-11-21T03:58:50;20.37;;;6.70;;
29548;SDS011;16487;53.094;8.800;2023-11-21T04:01:24;13.60;;;7.20;;
29548;SDS011;16487;53.094;8.800;2023-11-21T04:03:56;16.97;;;8.87;;
29548;SDS011;16487;53.094;8.800;2023-11-21T04:06:24;11.57;;;6.00;;
29548;SDS011;16487;53.094;8.800;2023-11-21T04:08:54;13.50;;;8.23;;
29548;SDS011;16487;53.094;8.800;2023-11-21T04:11:27;20.73;;;8.70;;
29548;SDS011;16487;53.094;8.800;2023-11-21T04:13:58;15.00;;;7.60;;
29548;SDS011;16487;53.094;8.800;2023-11-21T04:16:28;15.43;;;6.90;;
29548;SDS011;16487;53.094;8.800;2023-11-21T04:18:59;14.93;;;7.87;;
29548;SDS011;16487;53.094;8.800;2023-11-21T04:21:29;18.13;;;8.20;;
29548;SDS011;16487;53.094;8.800;2023-11-21T04:24:04;18.30;;;9.40;;
29548;SDS011;16487;53.094;8.800;2023-11-21T04:26:33;21.90;;;9.07;;
29548;SDS011;16487;53.094;8.800;2023-11-21T04:29:04;14.90;;;7.97;;
29548;SDS011;16487;53.094;8.800;2023-11-21T04:31:32;16.63;;;9.67;;
29548;SDS011;16487;53.094;8.800;2023-11-21T04:34:02;17.23;;;8.53;;
29548;SDS011;16487;53.094;8.800;2023-11-21T04:36:36;16.73;;;8.20;;
29548;SDS011;16487;53.094;8.800;2023-11-21T04:39:04;16.93;;;9.00;;
29548;SDS011;16487;53.094;8.800;2023-11-21T04:41:34;13.50;;;7.77;;
29548;SDS011;16487;53.094;8.800;2023-11-21T04:44:05;16.30;;;8.03;;
29548;SDS011;16487;53.094;8.800;2023-11-21T04:46:36;13.40;;;7.17;;
29548;SDS011;16487;53.094;8.800;2023-11-21T04:49:15;13.07;;;6.00;;
29548;SDS011;16487;53.094;8.800;2023-11-21T04:51:46;9.07;;;5.83;;
29548;SDS011;16487;53.094;8.800;2023-11-21T04:54:17;10.60;;;6.27;;
29548;SDS011;16487;53.094;8.800;2023-11-21T04:56:45;7.83;;;4.07;;
29548;SDS011;16487;53.094;8.800;2023-11-21T04:59:13;13.57;;;7.57;;
29548;SDS011;16487;53.094;8.800;2023-11-21T05:01:49;13.50;;;6.40;;
29548;SDS011;16487;53.094;8.800;2023-11-21T05:04:16;12.23;;;5.80;;
29548;SDS011;16487;53.094;8.800;2023-11-21T05:06:44;14.60;;;6.77;;
29548;SDS011;16487;53.094;8.800;2023-11-21T05:09:11;36.13;;;8.43;;
29548;SDS011;16487;53.094;8.800;2023-11-21T05:11:39;18.07;;;8.53;;
29548;SDS011;16487;53.094;8.800;2023-11-21T05:14:07;16.40;;;8.73;;
29548;SDS011;16487;53.094;8.800;2023-11-21T05:16:38;16.60;;;7.03;;
29548;SDS011;16487;53.094;8.800;2023-11-21T05:19:11;8.63;;;6.10;;
29548;SDS011;16487;53.094;8.800;2023-11-21T05:21:44;16.20;;;5.77;;
29548;SDS011;16487;53.094;8.800;2023-11-21T05:24:11;10.53;;;7.07;;
29548;SDS011;16487;53.094;8.800;2023-11-21T05:26:46;15.33;;;7.33;;
29548;SDS011;16487;53.094;8.800;2023-11-21T05:29:15;12.57;;;6.70;;
29548;SDS011;16487;53.094;8.800;2023-11-21T05:31:42;17.63;;;7.73;;
29548;SDS011;16487;53.094;8.800;2023-11-21T05:34:10;13.90;;;6.47;;
29548;SDS011;16487;53.094;8.800;2023-11-21T05:36:42;11.60;;;6.53;;
29548;SDS011;16487;53.094;8.800;2023-11-21T05:41:58;7.00;;;4.43;;
29548;SDS011;16487;53.094;8.800;2023-11-21T05:44:27;8.97;;;3.30;;
29548;SDS011;16487;53.094;8.800;2023-11-21T05:46:58;6.03;;;3.53;;
29548;SDS011;16487;53.094;8.800;2023-11-21T05:49:29;4.30;;;3.07;;
29548;SDS011;16487;53.094;8.800;2023-11-21T05:51:59;7.93;;;3.40;;
29548;SDS011;16487;53.094;8.800;2023-11-21T05:54:34;7.30;;;3.70;;
29548;SDS011;16487;53.094;8.800;2023-11-21T05:57:06;7.60;;;4.50;;
29548;SDS011;16487;53.094;8.800;2023-11-21T05:59:35;6.90;;;3.53;;
29548;SDS011;16487;53.094;8.800;2023-11-21T06:02:11;9.60;;;4.20;;
29548;SDS011;16487;53.094;8.800;2023-11-21T06:04:39;3.80;;;2.47;;
29548;SDS011;16487;53.094;8.800;2023-11-21T06:07:11;5.60;;;3.07;;
29548;SDS011;16487;53.094;8.800;2023-11-21T06:09:38;4.33;;;2.73;;
29548;SDS011;16487;53.094;8.800;2023-11-21T06:12:08;6.47;;;4.13;;
29548;SDS011;16487;53.094;8.800;2023-11-21T06:14:38;5.87;;;4.07;;
29548;SDS011;16487;53.094;8.800;2023-11-21T06:17:11;10.40;;;4.53;;
29548;SDS011;16487;53.094;8.800;2023-11-21T06:19:47;6.57;;;2.57;;
29548;SDS011;16487;53.094;8.800;2023-11-21T06:22:17;8.67;;;4.00;;
29548;SDS011;16487;53.094;8.800;2023-11-21T06:24:58;9.80;;;4.53;;
29548;SDS011;16487;53.094;8.800;2023-11-21T06:27:29;57.57;;;23.33;;
29548;SDS011;16487;53.094;8.800;2023-11-21T06:30:00;5.80;;;3.60;;
29548;SDS011;16487;53.094;8.800;2023-11-21T06:32:31;6.90;;;3.80;;
29548;SDS011;16487;53.094;8.800;2023-11-21T06:35:03;10.53;;;2.83;;
29548;SDS011;16487;53.094;8.800;2023-11-21T06:37:32;5.97;;;4.00;;
29548;SDS011;16487;53.094;8.800;2023-11-21T06:40:00;6.43;;;3.60;;
29548;SDS011;16487;53.094;8.800;2023-11-21T06:42:27;7.80;;;4.40;;
29548;SDS011;16487;53.094;8.800;2023-11-21T06:45:02;6.33;;;4.00;;
29548;SDS011;16487;53.094;8.800;2023-11-21T06:47:30;6.37;;;4.50;;
29548;SDS011;16487;53.094;8.800;2023-11-21T06:50:01;10.53;;;5.93;;
29548;SDS011;16487;53.094;8.800;2023-11-21T06:52:40;8.87;;;3.87;;
29548;SDS011;16487;53.094;8.800;2023-11-21T06:55:12;5.90;;;5.00;;
29548;SDS011;16487;53.094;8.800;2023-11-21T06:57:46;8.03;;;4.80;;
29548;SDS011;16487;53.094;8.800;2023-11-21T07:00:16;8.10;;;5.13;;
29548;SDS011;16487;53.094;8.800;2023-11-21T07:02:49;5.00;;;3.33;;
29548;SDS011;16487;53.094;8.800;2023-11-21T07:05:17;12.97;;;4.50;;
29548;SDS011;16487;53.094;8.800;2023-11-21T07:07:49;8.30;;;4.00;;
29548;SDS011;16487;53.094;8.800;2023-11-21T07:10:21;6.80;;;4.80;;
29548;SDS011;16487;53.094;8.800;2023-11-21T07:12:48;15.87;;;4.73;;
29548;SDS011;16487;53.094;8.800;2023-11-21T07:15:17;9.47;;;6.03;;
29548;SDS011;16487;53.094;8.800;2023-11-21T07:17:48;8.37;;;4.00;;
29548;SDS011;16487;53.094;8.800;2023-11-21T07:20:16;16.60;;;7.57;;
29548;SDS011;16487;53.094;8.800;2023-11-21T07:22:45;11.60;;;5.50;;
29548;SDS011;16487;53.094;8.800;2023-11-21T07:25:15;9.20;;;5.30;;
29548;SDS011;16487;53.094;8.800;2023-11-21T07:27:43;10.03;;;4.83;;
29548;SDS011;16487;53.094;8.800;2023-11-21T07:30:14;13.40;;;4.93;;
29548;SDS011;16487;53.094;8.800;2023-11-21T07:32:46;9.80;;;5.67;;
29548;SDS011;16487;53.094;8.800;2023-11-21T07:35:13;13.47;;;5.20;;
29548;SDS011;16487;53.094;8.800;2023-11-21T07:37:44;7.23;;;4.40;;
29548;SDS011;16487;53.094;8.800;2023-11-21T07:40:11;9.53;;;4.73;;
29548;SDS011;16487;53.094;8.800;2023-11-21T07:42:42;9.47;;;5.37;;
29548;SDS011;16487;53.094;8.800;2023-11-21T07:45:10;8.57;;;5.77;;
29548;SDS011;16487;53.094;8.800;2023-11-21T07:47:43;7.93;;;4.83;;
29548;SDS011;16487;53.094;8.800;2023-11-21T07:50:12;8.23;;;4.67;;
29548;SDS011;16487;53.094;8.800;2023-11-21T07:52:40;7.93;;;4.30;;
29548;SDS011;16487;53.094;8.800;2023-11-21T07:55:07;9.73;;;5.00;;
29548;SDS011;16487;53.094;8.800;2023-11-21T07:57:35;10.53;;;4.83;;
29548;SDS011;16487;53.094;8.800;2023-11-21T08:00:02;7.87;;;4.47;;
29548;SDS011;16487;53.094;8.800;2023-11-21T08:02:38;10.90;;;5.97;;
29548;SDS011;16487;53.094;8.800;2023-11-21T08:05:06;11.70;;;7.07;;
29548;SDS011;16487;53.094;8.800;2023-11-21T08:07:38;10.43;;;4.00;;
29548;SDS011;16487;53.094;8.800;2023-11-21T08:10:06;8.53;;;4.53;;
29548;SDS011;16487;53.094;8.800;2023-11-21T08:12:37;7.00;;;3.80;;
29548;SDS011;16487;53.094;8.800;2023-11-21T08:15:05;5.73;;;4.13;;
29548;SDS011;16487;53.094;8.800;2023-11-21T08:17:33;7.43;;;3.07;;
29548;SDS011;16487;53.094;8.800;2023-11-21T08:20:00;11.30;;;5.37;;
29548;SDS011;16487;53.094;8.800;2023-11-21T08:22:27;6.50;;;3.13;;
29548;SDS011;16487;53.094;8.800;2023-11-21T08:24:56;11.83;;;4.93;;
29548;SDS011;16487;53.094;8.800;2023-11-21T08:27:27;9.83;;;4.70;;
29548;SDS011;16487;53.094;8.800;2023-11-21T08:29:57;6.40;;;4.70;;
29548;SDS011;16487;53.094;8.800;2023-11-21T08:32:24;10.47;;;5.20;;
29548;SDS011;16487;53.094;8.800;2023-11-21T08:34:51;6.07;;;5.53;;
29548;SDS011;16487;53.094;8.800;2023-11-21T08:37:21;9.40;;;5.00;;
29548;SDS011;16487;53.094;8.800;2023-11-21T08:39:49;11.77;;;5.00;;
29548;SDS011;16487;53.094;8.800;2023-11-21T08:42:21;10.03;;;6.80;;
29548;SDS011;16487;53.094;8.800;2023-11-21T08:44:50;11.20;;;4.50;;
29548;SDS011;16487;53.094;8.800;2023-11-21T08:47:19;11.27;;;6.33;;
29548;SDS011;16487;53.094;8.800;2023-11-21T08:49:46;8.40;;;5.40;;
29548;SDS011;16487;53.094;8.800;2023-11-21T08:52:14;10.40;;;5.17;;
29548;SDS011;16487;53.094;8.800;2023-11-21T08:54:45;7.70;;;5.30;;
29548;SDS011;16487;53.094;8.800;2023-11-21T08:57:15;12.00;;;4.70;;
29548;SDS011;16487;53.094;8.800;2023-11-21T08:59:48;7.17;;;4.27;;
29548;SDS011;16487;53.094;8.800;2023-11-21T09:02:16;16.13;;;7.00;;
29548;SDS011;16487;53.094;8.800;2023-11-21T09:04:49;10.13;;;4.50;;
29548;SDS011;16487;53.094;8.800;2023-11-21T09:07:17;11.47;;;5.63;;
29548;SDS011;16487;53.094;8.800;2023-11-21T09:09:44;10.50;;;4.40;;
29548;SDS011;16487;53.094;8.800;2023-11-21T09:12:14;12.13;;;6.00;;
29548;SDS011;16487;53.094;8.800;2023-11-21T09:14:49;8.13;;;5.00;;
29548;SDS011;16487;53.094;8.800;2023-11-21T09:17:21;9.70;;;5.83;;
29548;SDS011;16487;53.094;8.800;2023-11-21T09:19:49;12.40;;;6.40;;
29548;SDS011;16487;53.094;8.800;2023-11-21T09:22:16;9.50;;;4.90;;
29548;SDS011;16487;53.094;8.800;2023-11-21T09:24:52;7.17;;;4.10;;
29548;SDS011;16487;53.094;8.800;2023-11-21T09:27:22;8.07;;;5.57;;
29548;SDS011;16487;53.094;8.800;2023-11-21T09:29:54;10.47;;;5.50;;
29548;SDS011;16487;53.094;8.800;2023-11-21T09:32:21;10.93;;;7.00;;
29548;SDS011;16487;53.094;8.800;2023-11-21T09:34:49;14.73;;;5.77;;
29548;SDS011;16487;53.094;8.800;2023-11-21T09:37:16;8.83;;;6.73;;
29548;SDS011;16487;53.094;8.800;2023-11-21T09:39:44;10.23;;;5.40;;
29548;SDS011;16487;53.094;8.800;2023-11-21T09:42:15;6.33;;;4.27;;
29548;SDS011;16487;53.094;8.800;2023-11-21T09:44:51;6.83;;;4.10;;
29548;SDS011;16487;53.094;8.800;2023-11-21T09:47:31;7.53;;;4.50;;
29548;SDS011;16487;53.094;8.800;2023-11-21T09:49:59;8.37;;;4.90;;
29548;SDS011;16487;53.094;8.800;2023-11-21T09:52:30;10.03;;;4.67;;
29548;SDS011;16487;53.094;8.800;2023-11-21T09:54:59;7.63;;;4.43;;
29548;SDS011;16487;53.094;8.800;2023-11-21T09:57:27;8.30;;;4.90;;
29548;SDS011;16487;53.094;8.800;2023-11-21T09:59:58;8.90;;;4.70;;
29548;SDS011;16487;53.094;8.800;2023-11-21T10:02:31;5.50;;;4.43;;
29548;SDS011;16487;53.094;8.800;2023-11-21T10:05:00;6.97;;;4.50;;
29548;SDS011;16487;53.094;8.800;2023-11-21T10:07:30;10.47;;;5.63;;
29548;SDS011;16487;53.094;8.800;2023-11-21T10:10:00;7.60;;;6.13;;
29548;SDS011;16487;53.094;8.800;2023-11-21T10:12:28;8.30;;;4.07;;
29548;SDS011;16487;53.094;8.800;2023-11-21T10:14:58;6.23;;;4.70;;
29548;SDS011;16487;53.094;8.800;2023-11-21T10:17:26;5.13;;;3.97;;
29548;SDS011;16487;53.094;8.800;2023-11-21T10:20:01;14.50;;;5.00;;
29548;SDS011;16487;53.094;8.800;2023-11-21T10:22:28;7.17;;;4.17;;
29548;SDS011;16487;53.094;8.800;2023-11-21T10:25:01;8.37;;;4.10;;
29548;SDS011;16487;53.094;8.800;2023-11-21T10:27:32;8.00;;;4.53;;
29548;SDS011;16487;53.094;8.800;2023-11-21T10:30:01;5.83;;;4.93;;
29548;SDS011;16487;53.094;8.800;2023-11-21T10:32:30;6.20;;;5.00;;
29548;SDS011;16487;53.094;8.800;2023-11-21T10:35:00;5.77;;;4.63;;
29548;SDS011;16487;53.094;8.800;2023-11-21T10:37:31;5.73;;;4.23;;
29548;SDS011;16487;53.094;8.800;2023-11-21T10:39:59;9.87;;;5.00;;
29548;SDS011;16487;53.094;8.800;2023-11-21T10:42:26;6.60;;;4.77;;
29548;SDS011;16487;53.094;8.800;2023-11-21T10:44:54;9.20;;;5.40;;
29548;SDS011;16487;53.094;8.800;2023-11-21T10:47:26;10.23;;;5.97;;
29548;SDS011;16487;53.094;8.800;2023-11-21T10:49:54;6.70;;;5.07;;
29548;SDS011;16487;53.094;8.800;2023-11-21T10:52:21;9.70;;;5.07;;
29548;SDS011;16487;53.094;8.800;2023-11-21T10:54:48;5.63;;;4.00;;
29548;SDS011;16487;53.094;8.800;2023-11-21T10:57:17;5.27;;;3.50;;
29548;SDS011;16487;53.094;8.800;2023-11-21T10:59:47;8.53;;;6.47;;
29548;SDS011;16487;53.094;8.800;2023-11-21T11:02:18;7.17;;;4.80;;
29548;SDS011;16487;53.094;8.800;2023-11-21T11:04:58;4.53;;;4.00;;
29548;SDS011;16487;53.094;8.800;2023-11-21T11:07:30;6.87;;;4.43;;
29548;SDS011;16487;53.094;8.800;2023-11-21T11:10:01;6.50;;;3.80;;
29548;SDS011;16487;53.094;8.800;2023-11-21T11:12:28;6.27;;;4.10;;
29548;SDS011;16487;53.094;8.800;2023-11-21T11:14:56;6.93;;;5.33;;
29548;SDS011;16487;53.094;8.800;2023-11-21T11:17:24;7.83;;;4.87;;
29548;SDS011;16487;53.094;8.800;2023-11-21T11:19:52;5.60;;;4.70;;
29548;SDS011;16487;53.094;8.800;2023-11-21T11:22:24;5.80;;;3.67;;
29548;SDS011;16487;53.094;8.800;2023-11-21T11:25:05;6.33;;;4.60;;
29548;SDS011;16487;53.094;8.800;2023-11-21T11:27:51;3.77;;;3.20;;
29548;SDS011;16487;53.094;8.800;2023-11-21T11:30:25;7.70;;;4.60;;
29548;SDS011;16487;53.094;8.800;2023-11-21T11:33:03;4.77;;;4.20;;
29548;SDS011;16487;53.094;8.800;2023-11-21T11:35:35;4.50;;;3.40;;
29548;SDS011;16487;53.094;8.800;2023-11-21T11:38:10;6.57;;;3.23;;
29548;SDS011;16487;53.094;8.800;2023-11-21T11:40:38;3.67;;;3.37;;
29548;SDS011;16487;53.094;8.800;2023-11-21T11:43:07;3.83;;;3.40;;
29548;SDS011;16487;53.094;8.800;2023-11-21T11:45:36;6.90;;;4.57;;
29548;SDS011;16487;53.094;8.800;2023-11-21T11:48:05;5.00;;;3.57;;
29548;SDS011;16487;53.094;8.800;2023-11-21T11:50:32;5.40;;;4.20;;
29548;SDS011;16487;53.094;8.800;2023-11-21T11:53:15;4.87;;;3.50;;
29548;SDS011;16487;53.094;8.800;2023-11-21T11:55:42;5.30;;;3.53;;
29548;SDS011;16487;53.094;8.800;2023-11-21T11:58:10;3.50;;;3.20;;
29548;SDS011;16487;53.094;8.800;2023-11-21T12:00:38;4.50;;;3.50;;
29548;SDS011;16487;53.094;8.800;2023-11-21T12:03:07;3.20;;;2.90;;
29548;SDS011;16487;53.094;8.800;2023-11-21T12:05:35;9.70;;;3.50;;
29548;SDS011;16487;53.094;8.800;2023-11-21T12:08:03;7.93;;;5.07;;
29548;SDS011;16487;53.094;8.800;2023-11-21T12:10:33;3.87;;;2.93;;
29548;SDS011;16487;53.094;8.800;2023-11-21T12:13:02;4.87;;;3.33;;
29548;SDS011;16487;53.094;8.800;2023-11-21T12:15:33;4.80;;;3.30;;
29548;SDS011;16487;53.094;8.800;2023-11-21T12:18:00;4.87;;;3.20;;
29548;SDS011;16487;53.094;8.800;2023-11-21T12:20:28;3.30;;;2.40;;
29548;SDS011;16487;53.094;8.800;2023-11-21T12:22:56;4.00;;;3.00;;
29548;SDS011;16487;53.094;8.800;2023-11-21T12:25:26;4.10;;;3.43;;
29548;SDS011;16487;53.094;8.800;2023-11-21T12:27:59;4.37;;;2.90;;
29548;SDS011;16487;53.094;8.800;2023-11-21T12:30:30;5.27;;;3.40;;
29548;SDS011;16487;53.094;8.800;2023-11-21T12:33:04;4.63;;;3.30;;
29548;SDS011;16487;53.094;8.800;2023-11-21T12:35:32;5.53;;;3.27;;
29548;SDS011;16487;53.094;8.800;2023-11-21T12:38:00;3.60;;;1.97;;
29548;SDS011;16487;53.094;8.800;2023-11-21T12:40:28;3.77;;;2.17;;
29548;SDS011;16487;53.094;8.800;2023-11-21T12:42:55;7.30;;;2.57;;
29548;SDS011;16487;53.094;8.800;2023-11-21T12:45:25;4.60;;;2.63;;
29548;SDS011;16487;53.094;8.800;2023-11-21T12:47:55;4.53;;;2.60;;
29548;SDS011;16487;53.094;8.800;2023-11-21T12:50:24;3.67;;;2.97;;
29548;SDS011;16487;53.094;8.800;2023-11-21T12:52:58;3.60;;;2.27;;
29548;SDS011;16487;53.094;8.800;2023-11-21T12:55:29;3.60;;;2.47;;
29548;SDS011;16487;53.094;8.800;2023-11-21T12:57:57;2.47;;;2.20;;
29548;SDS011;16487;53.094;8.800;2023-11-21T13:00:30;4.63;;;2.13;;
29548;SDS011;16487;53.094;8.800;2023-11-21T13:03:00;1.80;;;1.60;;
29548;SDS011;16487;53.094;8.800;2023-11-21T13:05:28;2.10;;;1.53;;
29548;SDS011;16487;53.094;8.800;2023-11-21T13:07:56;1.97;;;1.87;;
29548;SDS011;16487;53.094;8.800;2023-11-21T13:10:24;4.43;;;2.03;;
29548;SDS011;16487;53.094;8.800;2023-11-21T13:12:52;2.13;;;1.93;;
29548;SDS011;16487;53.094;8.800;2023-11-21T13:15:20;2.27;;;2.07;;
29548;SDS011;16487;53.094;8.800;2023-11-21T13:17:51;2.63;;;1.60;;
29548;SDS011;16487;53.094;8.800;2023-11-21T13:20:19;1.50;;;1.40;;
29548;SDS011;16487;53.094;8.800;2023-11-21T13:22:47;1.93;;;1.47;;
29548;SDS011;16487;53.094;8.800;2023-11-21T13:25:15;2.13;;;1.90;;
29548;SDS011;16487;53.094;8.800;2023-11-21T13:27:45;1.27;;;1.13;;
29548;SDS011;16487;53.094;8.800;2023-11-21T13:30:16;1.13;;;1.03;;
29548;SDS011;16487;53.094;8.800;2023-11-21T13:32:44;1.60;;;1.50;;
29548;SDS011;16487;53.094;8.800;2023-11-21T13:35:14;2.40;;;1.40;;
29548;SDS011;16487;53.094;8.800;2023-11-21T13:37:41;1.63;;;1.53;;
29548;SDS011;16487;53.094;8.800;2023-11-21T13:40:08;2.97;;;2.00;;
29548;SDS011;16487;53.094;8.800;2023-11-21T13:42:40;1.00;;;1.00;;
29548;SDS011;16487;53.094;8.800;2023-11-21T13:45:07;2.30;;;1.80;;
29548;SDS011;16487;53.094;8.800;2023-11-21T13:47:36;2.30;;;1.53;;
29548;SDS011;16487;53.094;8.800;2023-11-21T13:50:03;1.67;;;1.57;;
29548;SDS011;16487;53.094;8.800;2023-11-21T13:52:33;4.33;;;2.80;;
29548;SDS011;16487;53.094;8.800;2023-11-21T13:55:06;5.43;;;2.10;;
29548;SDS011;16487;53.094;8.800;2023-11-21T13:57:34;2.50;;;1.77;;
29548;SDS011;16487;53.094;8.800;2023-11-21T14:00:02;1.27;;;1.17;;
29548;SDS011;16487;53.094;8.800;2023-11-21T14:02:35;2.13;;;1.20;;
29548;SDS011;16487;53.094;8.800;2023-11-21T14:05:05;1.80;;;1.70;;
29548;SDS011;16487;53.094;8.800;2023-11-21T14:07:39;2.10;;;1.47;;
29548;SDS011;16487;53.094;8.800;2023-11-21T14:10:10;1.53;;;1.43;;
29548;SDS011;16487;53.094;8.800;2023-11-21T14:12:37;1.53;;;1.43;;
29548;SDS011;16487;53.094;8.800;2023-11-21T14:15:06;2.00;;;1.47;;
29548;SDS011;16487;53.094;8.800;2023-11-21T14:17:33;3.90;;;1.40;;
29548;SDS011;16487;53.094;8.800;2023-11-21T14:20:03;1.50;;;1.33;;
29548;SDS011;16487;53.094;8.800;2023-11-21T14:22:32;2.33;;;1.97;;
29548;SDS011;16487;53.094;8.800;2023-11-21T14:25:03;3.20;;;1.90;;
29548;SDS011;16487;53.094;8.800;2023-11-21T14:27:30;1.43;;;1.27;;
29548;SDS011;16487;53.094;8.800;2023-11-21T14:29:58;1.33;;;1.23;;
29548;SDS011;16487;53.094;8.800;2023-11-21T14:32:25;2.70;;;2.50;;
29548;SDS011;16487;53.094;8.800;2023-11-21T14:34:53;2.90;;;1.53;;
29548;SDS011;16487;53.094;8.800;2023-11-21T14:37:20;1.70;;;1.60;;
29548;SDS011;16487;53.094;8.800;2023-11-21T14:39:48;2.40;;;1.80;;
29548;SDS011;16487;53.094;8.800;2023-11-21T14:42:19;1.70;;;1.53;;
29548;SDS011;16487;53.094;8.800;2023-11-21T14:44:49;1.43;;;1.13;;
29548;SDS011;16487;53.094;8.800;2023-11-21T14:47:16;1.43;;;1.33;;
29548;SDS011;16487;53.094;8.800;2023-11-21T14:49:45;2.30;;;1.70;;
29548;SDS011;16487;53.094;8.800;2023-11-21T14:52:12;3.27;;;1.67;;
29548;SDS011;16487;53.094;8.800;2023-11-21T14:54:40;2.67;;;1.83;;
29548;SDS011;16487;53.094;8.800;2023-11-21T14:57:08;4.20;;;1.97;;
29548;SDS011;16487;53.094;8.800;2023-11-21T14:59:42;3.60;;;1.33;;
29548;SDS011;16487;53.094;8.800;2023-11-21T15:02:10;1.60;;;1.40;;